Time;durP1;ratioP1;P1;durP2;ratioP2;P2;SDS_P1;SDS_P2;PMS_P1;PMS_P2;Temp;Humidity;BMP_temperature;BMP_pressure;BME280_temperature;BME280_humidity;BME280_pressure;Samples;Min_cycle;Max_cycle;Signal;HPM_P1;HPM_P2
2023/01/19 00:04:10;;;;;;;14.20;11.30;;;;;;;-0.46;54.28;98585.88;10482158;28;20248;-62
2023/01/19 00:09:12;;;;;;;12.67;9.57;;;;;;;-1.10;55.48;98704.63;10482429;28;20236;-62
2023/01/19 00:14:13;;;;;;;13.87;11.50;;;;;;;1.32;51.50;98514.34;10483031;28;20736;-62
2023/01/19 00:19:15;;;;;;;15.13;11.30;;;;;;;1.11;52.22;98550.75;10487866;28;20726;-62
2023/01/19 00:24:17;;;;;;;14.07;11.13;;;;;;;0.37;53.42;98607.97;10485626;28;20231;-61
2023/01/19 00:29:19;;;;;;;13.93;10.80;;;;;;;0.19;54.57;98619.28;10489170;28;20720;-62
2023/01/19 00:34:20;;;;;;;17.43;10.70;;;;;;;0.42;53.28;98579.41;10490027;28;20621;-62
2023/01/19 00:39:22;;;;;;;13.90;10.90;;;;;;;0.64;52.17;98578.16;10487089;28;20234;-62
2023/01/19 00:44:24;;;;;;;15.33;10.80;;;;;;;-0.68;54.22;98730.69;10484645;28;20225;-62
2023/01/19 00:49:25;;;;;;;13.63;11.17;;;;;;;-0.77;55.60;98708.69;10484199;28;20238;-62
2023/01/19 00:54:27;;;;;;;14.57;9.80;;;;;;;0.23;54.23;98606.66;10489368;28;20709;-62
2023/01/19 00:59:29;;;;;;;14.80;10.57;;;;;;;0.63;53.57;98569.44;10493790;28;20239;-62
2023/01/19 01:04:30;;;;;;;11.73;10.43;;;;;;;-0.53;55.21;98663.63;10483427;28;20240;-62
2023/01/19 01:09:32;;;;;;;13.47;10.77;;;;;;;0.44;54.33;98574.81;10483394;28;20327;-62
2023/01/19 01:14:34;;;;;;;15.03;10.23;;;;;;;0.16;54.36;98614.31;10484300;28;20240;-62
2023/01/19 05:05:20;;;;;;;19.37;13.67;;;;;;;-2.24;60.40;98801.66;10564704;27;20751;-58
2023/01/19 05:10:22;;;;;;;15.20;11.90;;;;;;;-2.16;60.20;98794.00;10517003;28;20253;-57
2023/01/19 05:15:24;;;;;;;18.00;13.13;;;;;;;-1.91;59.92;98747.41;10525384;28;20232;-59
2023/01/19 05:20:25;;;;;;;18.33;12.57;;;;;;;-2.50;60.65;98840.50;10512687;28;20228;-59
2023/01/19 05:25:27;;;;;;;16.50;12.70;;;;;;;-1.93;59.87;98742.28;10522874;28;20482;-59
2023/01/19 05:30:29;;;;;;;17.53;11.47;;;;;;;-1.63;58.54;98724.06;10516181;28;20236;-60
2023/01/19 05:35:31;;;;;;;15.47;12.60;;;;;;;-1.43;57.86;98717.09;10514042;27;20730;-60
2023/01/19 05:40:37;;;;;;;15.33;11.13;;;;;;;-1.76;59.42;98750.53;10522770;28;20246;-61
2023/01/19 05:45:39;;;;;;;12.93;9.97;;;;;;;-1.60;59.40;98715.94;10501603;28;20242;-61
2023/01/19 05:50:41;;;;;;;15.77;10.53;;;;;;;-1.31;58.10;98673.22;9623280;28;10000947;-60
2023/01/19 05:55:43;;;;;;;15.83;11.40;;;;;;;-2.09;59.88;98765.50;10514135;28;20228;-61
2023/01/19 06:00:45;;;;;;;16.33;11.03;;;;;;;-1.38;58.71;98663.28;10501693;28;20237;-60
2023/01/19 06:05:47;;;;;;;16.43;12.33;;;;;;;-1.22;57.67;98668.00;10529386;28;20244;-60
2023/01/19 06:10:49;;;;;;;13.37;11.97;;;;;;;-1.47;58.00;98724.41;10546338;28;20871;-61
2023/01/19 06:15:58;;;;;;;15.60;11.83;;;;;;;-0.93;57.38;98682.94;10528845;28;20318;-60
2023/01/19 06:21:06;;;;;;;12.80;10.03;;;;;;;-1.88;59.96;98780.41;10516370;28;20323;-61
2023/01/19 06:26:07;;;;;;;16.47;12.07;;;;;;;-1.58;58.04;98738.47;10522505;28;20266;-60
2023/01/19 06:31:09;;;;;;;13.63;11.23;;;;;;;-1.30;58.34;98740.50;10520967;28;20635;-60
2023/01/19 06:36:11;;;;;;;15.30;11.77;;;;;;;-2.40;60.61;98838.78;10519615;28;20232;-61
2023/01/19 06:41:12;;;;;;;13.70;10.03;;;;;;;-2.60;62.16;98857.91;10523491;28;20235;-58
2023/01/19 06:46:14;;;;;;;13.60;10.53;;;;;;;-2.69;63.03;98849.81;10520217;28;20231;-60
2023/01/19 06:51:16;;;;;;;14.47;10.97;;;;;;;-3.01;61.96;98893.38;10525757;28;20232;-60
2023/01/19 06:56:17;;;;;;;14.03;11.40;;;;;;;-2.42;61.57;98819.75;10524061;28;20240;-60
2023/01/19 07:01:20;;;;;;;15.33;10.47;;;;;;;-2.48;62.39;98807.13;10514559;28;20240;-61
2023/01/19 07:06:23;;;;;;;17.10;12.13;;;;;;;-1.64;59.84;98757.34;10522095;28;20227;-59
2023/01/19 07:11:25;;;;;;;14.53;11.53;;;;;;;-1.42;59.40;98743.22;10512360;28;20232;-73
2023/01/19 07:16:33;;;;;;;15.17;12.07;;;;;;;-2.18;60.90;98806.44;10512602;28;20749;-59
2023/01/19 07:21:35;;;;;;;14.30;9.63;;;;;;;-2.65;61.56;98871.34;10475456;22;20230;-34
2023/01/19 07:26:37;;;;;;;14.20;10.47;;;;;;;-1.45;58.90;98716.41;10433039;28;20242;-34
2023/01/19 07:31:39;;;;;;;15.10;10.83;;;;;;;-1.62;59.54;98734.44;10429825;28;20229;-34
2023/01/19 07:36:41;;;;;;;16.17;10.50;;;;;;;-2.13;59.08;98801.63;10430445;28;20622;-34
2023/01/19 07:41:43;;;;;;;11.60;8.97;;;;;;;-2.93;60.54;98927.66;10431421;28;20653;-34
2023/01/19 07:46:45;;;;;;;14.17;11.13;;;;;;;-1.07;57.67;98720.13;10431216;28;20623;-34
2023/01/19 07:51:46;;;;;;;15.10;9.97;;;;;;;-1.39;57.99;98765.75;10434646;28;20235;-34
2023/01/19 07:56:48;;;;;;;14.73;10.20;;;;;;;-1.45;58.66;98782.03;10437094;28;20242;-34
2023/01/19 08:01:50;;;;;;;14.17;10.97;;;;;;;-1.82;58.23;98859.41;10432504;28;20238;-34
2023/01/19 08:06:54;;;;;;;13.90;10.37;;;;;;;-1.58;57.87;98835.56;10429180;28;20336;-34
2023/01/19 08:11:56;;;;;;;14.53;9.80;;;;;;;-2.23;59.17;98900.31;10429519;28;20322;-34
2023/01/19 08:16:59;;;;;;;13.90;10.00;;;;;;;-1.59;58.57;98852.25;10425581;28;20236;-34
2023/01/19 08:22:01;;;;;;;16.07;10.43;;;;;;;-1.66;57.81;98858.97;10429808;28;20261;-34
2023/01/19 08:27:03;;;;;;;16.70;11.77;;;;;;;-0.84;57.18;98789.00;10426478;28;20233;-34
2023/01/19 08:32:05;;;;;;;13.33;10.70;;;;;;;-0.94;56.31;98793.41;10429818;28;20233;-34
2023/01/19 08:37:07;;;;;;;18.53;11.77;;;;;;;-1.26;58.05;98836.41;10430971;28;20609;-34
2023/01/19 08:42:09;;;;;;;15.37;12.57;;;;;;;-0.43;56.49;98753.00;10434684;28;20751;-34
2023/01/19 08:47:10;;;;;;;16.60;10.43;;;;;;;-1.74;58.61;98904.19;10432929;28;20254;-34
2023/01/19 08:52:12;;;;;;;15.00;10.53;;;;;;;-1.26;58.90;98832.00;10433877;28;20234;-34
2023/01/19 08:57:15;;;;;;;13.43;9.87;;;;;;;-1.62;59.88;98859.53;10427803;28;20238;-34
2023/01/19 09:02:16;;;;;;;15.83;9.57;;;;;;;-0.50;56.59;98765.00;10429576;28;20349;-34
2023/01/19 09:07:18;;;;;;;15.77;11.30;;;;;;;-0.51;56.46;98797.53;10433342;28;20710;-34
2023/01/19 09:12:20;;;;;;;12.37;8.57;;;;;;;-1.84;59.23;98947.06;10432259;28;20235;-33
2023/01/19 09:17:22;;;;;;;13.70;9.97;;;;;;;-0.83;58.01;98824.81;10433955;28;20238;-34
2023/01/19 09:22:24;;;;;;;12.83;10.50;;;;;;;-1.44;58.89;98915.75;10433235;28;20237;-34
2023/01/19 09:27:26;;;;;;;16.13;10.30;;;;;;;0.05;55.63;98778.41;10431667;28;20242;-34
2023/01/19 09:32:27;;;;;;;13.77;10.30;;;;;;;-0.70;56.75;98849.06;10426733;28;20246;-34
2023/01/19 09:37:29;;;;;;;11.80;10.10;;;;;;;-0.39;56.01;98825.34;10435532;28;20236;-34
2023/01/19 09:42:50;;;;;;;13.60;10.53;;;;;;;-0.59;55.92;98882.25;10435728;28;20239;-34
2023/01/19 09:47:53;;;;;;;14.03;10.90;;;;;;;0.02;56.01;98827.84;10429291;28;20226;-34
2023/01/19 09:53:12;;;;;;;14.47;10.30;;;;;;;0.49;54.37;98815.59;10458163;28;20233;-34
2023/01/19 09:58:17;;;;;;;13.97;11.10;;;;;;;-0.33;55.63;98916.00;10442638;28;20231;-34
2023/01/19 10:03:20;;;;;;;13.10;11.10;;;;;;;0.03;55.15;98916.31;10438379;28;20649;-34
2023/01/19 10:08:59;;;;;;;13.40;11.27;;;;;;;0.48;53.89;98874.47;10436778;28;20400;-34
2023/01/19 10:14:11;;;;;;;14.67;12.37;;;;;;;0.74;54.11;98886.19;10431234;28;20230;-34
2023/01/19 10:19:29;;;;;;;13.97;11.57;;;;;;;0.68;54.32;98880.53;10429146;28;20239;-34
2023/01/19 10:24:37;;;;;;;14.57;11.33;;;;;;;0.15;55.40;98938.91;10438329;28;20254;-34
2023/01/19 10:29:39;;;;;;;14.43;11.37;;;;;;;0.86;54.29;98885.03;10422227;28;20783;-34
2023/01/19 10:34:41;;;;;;;15.37;12.33;;;;;;;0.33;54.77;98933.78;10429370;28;20337;-34
2023/01/19 10:40:09;;;;;;;15.77;11.47;;;;;;;0.38;54.43;98926.31;10431516;28;20246;-34
2023/01/19 10:45:27;;;;;;;12.70;10.23;;;;;;;0.29;55.15;98949.03;10434240;28;20262;-34
2023/01/19 10:50:32;;;;;;;14.23;10.83;;;;;;;0.66;54.68;98924.63;10432329;28;20269;-34
2023/01/19 10:55:36;;;;;;;17.67;11.53;;;;;;;0.43;54.29;98939.06;10434061;28;20273;-34
2023/01/19 11:06:22;;;;;;;14.37;10.13;;;;;;;-2.07;61.30;99017.06;10567481;27;20808;-61
2023/01/19 11:11:24;;;;;;;13.63;10.77;;;;;;;-1.04;60.06;98917.66;10552045;28;20233;-63
2023/01/19 11:16:29;;;;;;;12.47;10.07;;;;;;;-2.00;62.57;99011.22;10545893;28;20235;-63
2023/01/19 11:21:31;;;;;;;13.03;10.80;;;;;;;-1.51;60.06;98963.59;10520819;28;20314;-63
2023/01/19 11:26:39;;;;;;;13.33;9.10;;;;;;;-1.94;61.55;99017.75;10509777;28;20241;-63
2023/01/19 11:31:41;;;;;;;14.47;11.63;;;;;;;-0.58;58.63;98868.16;10505653;28;20233;-63
2023/01/19 11:36:55;;;;;;;15.10;10.97;;;;;;;-0.76;58.86;98907.38;10503207;28;20238;-62
2023/01/19 11:42:01;;;;;;;16.07;11.60;;;;;;;-1.32;60.35;98966.38;10504678;28;20233;-62
2023/01/19 11:47:15;;;;;;;13.20;10.53;;;;;;;-1.00;59.30;98973.34;10499181;28;20248;-63
2023/01/19 11:52:29;;;;;;;12.30;9.90;;;;;;;-0.28;58.43;98874.34;10495277;28;20549;-63
2023/01/19 11:57:31;;;;;;;12.53;10.17;;;;;;;-1.75;61.32;99032.84;10510068;28;20578;-62
2023/01/19 12:02:45;;;;;;;19.03;11.57;;;;;;;-0.21;57.75;98883.34;10506520;28;20234;-64
2023/01/19 12:07:49;;;;;;;15.90;11.07;;;;;;;0.05;57.27;98874.91;10503226;28;20279;-63
2023/01/19 12:12:52;;;;;;;13.97;11.53;;;;;;;0.26;56.76;98874.78;10506432;28;20693;-63
2023/01/19 12:17:58;;;;;;;15.90;11.57;;;;;;;-0.51;57.47;98936.84;10477992;28;20234;-64
2023/01/19 12:23:10;;;;;;;19.23;10.00;;;;;;;0.16;56.85;98885.31;10482463;28;20235;-63
2023/01/19 12:28:14;;;;;;;13.87;10.47;;;;;;;0.33;56.68;98882.97;10475482;28;20240;-63
2023/01/19 12:33:32;;;;;;;13.93;10.43;;;;;;;0.13;56.64;98912.72;10473938;28;20224;-63
2023/01/19 12:38:44;;;;;;;11.60;9.40;;;;;;;-1.55;57.77;99011.13;10477771;28;20276;-63
2023/01/19 12:44:07;;;;;;;14.33;10.37;;;;;;;0.64;55.39;98867.78;10482269;28;20845;-63
2023/01/19 12:49:26;;;;;;;13.50;10.20;;;;;;;0.43;56.19;98883.78;10477935;28;20234;-63
2023/01/19 12:54:31;;;;;;;12.47;10.57;;;;;;;-0.22;56.59;98936.91;10496238;28;20265;-63
2023/01/19 12:59:36;;;;;;;13.83;10.03;;;;;;;-0.17;56.62;98934.69;10477566;28;20429;-63
2023/01/19 13:04:37;;;;;;;11.83;9.97;;;;;;;0.06;56.78;98929.22;10480088;28;20357;-63
2023/01/19 13:09:41;;;;;;;13.57;10.50;;;;;;;0.61;55.93;98876.81;10481224;28;20732;-63
2023/01/19 13:14:43;;;;;;;13.60;10.20;;;;;;;0.49;55.79;98893.72;10473667;28;20257;-63
2023/01/19 13:20:19;;;;;;;13.77;10.07;;;;;;;0.69;55.09;98889.25;10497017;22;20755;-35
2023/01/19 13:25:29;;;;;;;9.90;8.47;;;;;;;0.48;55.92;98894.72;10469677;28;20245;-35
2023/01/19 13:30:33;;;;;;;13.53;10.33;;;;;;;0.77;55.39;98888.56;10470995;28;20223;-35
2023/01/19 13:49:43;;;;;;;22.13;16.07;;;;;;;1.06;53.94;98912.16;10382394;28;20274;-88
2023/01/19 13:56:13;;;;;;;11.47;8.73;;;;;;;0.58;54.49;98942.91;10383857;28;20682;-88
2023/01/19 15:40:57;;;;;;;9.67;7.13;;;;;;;-1.14;58.87;99124.19;10361232;28;20654;-87
